RYR55RV EBCI-LMML
Flight info
| Callsign | RYR55RV |
|---|---|
| Flight time | N/A |
| Altitude | 39000 |
| Route | RITAX UT27 ROUSY DCT GTQ DCT DEVDI DCT ODINA DCT PAL DCT ALOKU DCT MARON DCT EKOLA L12 GZO |
| Aircraft | B38M/M-SDE2E3GIM1RWY/HB1 |
Departure
| Time | 2026-04-29 16:30 |
|---|---|
| Airport | Brussels South Charleroi Airport (EBCI) |
Arrival
| Time | N/A |
|---|---|
| Airport | Malta International Airport (LMML) |
| Time | Latitude | Longitude | Altitude | Speed | Heading |
|---|---|---|---|---|---|
| 2026-04-29 15:51 | 50.46851 | 4.47043 | 615 ft | 0 kts | 335° |
| 2026-04-29 16:17 | 50.46842 | 4.47050 | 629 ft | 2 kts | 333° |
| 2026-04-29 16:17 | 50.46828 | 4.47063 | 625 ft | 2 kts | 328° |
| 2026-04-29 16:18 | 50.46814 | 4.47079 | 615 ft | 2 kts | 307° |
| 2026-04-29 16:18 | 50.46811 | 4.47103 | 623 ft | 2 kts | 248° |
| 2026-04-29 16:18 | 50.46818 | 4.47127 | 615 ft | 2 kts | 246° |
| 2026-04-29 16:18 | 50.46821 | 4.47136 | 615 ft | 0 kts | 245° |
| 2026-04-29 16:22 | 50.46819 | 4.47131 | 615 ft | 2 kts | 245° |
| 2026-04-29 16:22 | 50.46795 | 4.47047 | 632 ft | 15 kts | 245° |
| 2026-04-29 16:22 | 50.46745 | 4.46872 | 617 ft | 18 kts | 245° |
| 2026-04-29 16:23 | 50.46667 | 4.46782 | 618 ft | 15 kts | 159° |
| 2026-04-29 16:23 | 50.46588 | 4.46736 | 620 ft | 15 kts | 244° |
| 2026-04-29 16:23 | 50.46531 | 4.46538 | 618 ft | 25 kts | 245° |
| 2026-04-29 16:23 | 50.46453 | 4.46270 | 626 ft | 28 kts | 245° |
| 2026-04-29 16:24 | 50.46370 | 4.45984 | 622 ft | 30 kts | 245° |
| 2026-04-29 16:24 | 50.46283 | 4.45684 | 622 ft | 31 kts | 245° |
| 2026-04-29 16:24 | 50.46192 | 4.45371 | 627 ft | 31 kts | 245° |
| 2026-04-29 16:24 | 50.46109 | 4.45086 | 615 ft | 29 kts | 245° |
| 2026-04-29 16:25 | 50.46032 | 4.44822 | 620 ft | 15 kts | 241° |
| 2026-04-29 16:25 | 50.46008 | 4.44784 | 615 ft | 0 kts | 212° |
| 2026-04-29 16:29 | 50.46008 | 4.44783 | 631 ft | 1 kts | 210° |
| 2026-04-29 16:29 | 50.45960 | 4.44772 | 615 ft | 14 kts | 171° |
| 2026-04-29 16:29 | 50.45882 | 4.44882 | 621 ft | 18 kts | 96° |
| 2026-04-29 16:29 | 50.45971 | 4.45234 | 624 ft | 66 kts | 65° |
| 2026-04-29 16:30 | 50.46265 | 4.46250 | 618 ft | 136 kts | 65° |
| 2026-04-29 16:30 | 50.46708 | 4.47801 | 1028 ft | 164 kts | 67° |
| 2026-04-29 16:30 | 50.47186 | 4.49444 | 1991 ft | 168 kts | 60° |
| 2026-04-29 16:30 | 50.47980 | 4.50884 | 2734 ft | 182 kts | 47° |
| 2026-04-29 16:31 | 50.48888 | 4.52449 | 3262 ft | 205 kts | 50° |
| 2026-04-29 16:31 | 50.49896 | 4.54179 | 3946 ft | 223 kts | 49° |
| 2026-04-29 16:31 | 50.50974 | 4.55988 | 4757 ft | 231 kts | 50° |
| 2026-04-29 16:31 | 50.52067 | 4.57940 | 5523 ft | 242 kts | 53° |
| 2026-04-29 16:32 | 50.53139 | 4.60028 | 6395 ft | 249 kts | 53° |
| 2026-04-29 16:32 | 50.53995 | 4.61677 | 7041 ft | 254 kts | 53° |
| 2026-04-29 16:32 | 50.55068 | 4.63749 | 7810 ft | 261 kts | 53° |
| 2026-04-29 16:32 | 50.56205 | 4.65969 | 8604 ft | 268 kts | 53° |
| 2026-04-29 16:33 | 50.58516 | 4.70582 | 10304 ft | 276 kts | 53° |
| 2026-04-29 16:33 | 50.59606 | 4.72815 | 10812 ft | 290 kts | 53° |
| 2026-04-29 16:34 | 50.60334 | 4.74313 | 11080 ft | 300 kts | 53° |
| 2026-04-29 16:34 | 50.61644 | 4.76995 | 11550 ft | 316 kts | 52° |
| 2026-04-29 16:34 | 50.63015 | 4.79797 | 12117 ft | 327 kts | 52° |
| 2026-04-29 16:34 | 50.64365 | 4.82686 | 12954 ft | 330 kts | 59° |
| 2026-04-29 16:35 | 50.65141 | 4.86114 | 13659 ft | 337 kts | 82° |
| 2026-04-29 16:35 | 50.64998 | 4.89815 | 14381 ft | 344 kts | 104° |
| 2026-04-29 16:35 | 50.63976 | 4.93231 | 15048 ft | 348 kts | 127° |
| 2026-04-29 16:35 | 50.62334 | 4.96041 | 15712 ft | 354 kts | 134° |
| 2026-04-29 16:36 | 50.60581 | 4.98852 | 16363 ft | 359 kts | 135° |
| 2026-04-29 16:36 | 50.58806 | 5.01668 | 17055 ft | 364 kts | 135° |
| 2026-04-29 16:36 | 50.57033 | 5.04466 | 17678 ft | 368 kts | 135° |
| 2026-04-29 16:36 | 50.55208 | 5.07337 | 18321 ft | 373 kts | 135° |
| 2026-04-29 16:37 | 50.53360 | 5.10238 | 18704 ft | 377 kts | 135° |
| 2026-04-29 16:37 | 50.51500 | 5.13152 | 18732 ft | 377 kts | 135° |
| 2026-04-29 16:37 | 50.49639 | 5.16066 | 18698 ft | 377 kts | 135° |
| 2026-04-29 16:37 | 50.48412 | 5.17984 | 18429 ft | 377 kts | 135° |
| 2026-04-29 16:38 | 50.45944 | 5.21845 | 17906 ft | 373 kts | 134° |
| 2026-04-29 16:38 | 50.44298 | 5.24968 | 17518 ft | 370 kts | 131° |
| 2026-04-29 16:38 | 50.42330 | 5.27514 | 17124 ft | 366 kts | 153° |
| 2026-04-29 16:38 | 50.39960 | 5.28803 | 16753 ft | 357 kts | 174° |
| 2026-04-29 16:39 | 50.37502 | 5.28731 | 16190 ft | 353 kts | 194° |
| 2026-04-29 16:39 | 50.35242 | 5.27302 | 15625 ft | 350 kts | 215° |
| 2026-04-29 16:39 | 50.33485 | 5.24724 | 15080 ft | 347 kts | 236° |
| 2026-04-29 16:39 | 50.32470 | 5.21406 | 14563 ft | 343 kts | 257° |
| 2026-04-29 16:40 | 50.32099 | 5.17739 | 14149 ft | 339 kts | 264° |
| 2026-04-29 16:40 | 50.31894 | 5.14074 | 13686 ft | 336 kts | 266° |
| 2026-04-29 16:40 | 50.31740 | 5.10433 | 13246 ft | 333 kts | 266° |
| 2026-04-29 16:40 | 50.31592 | 5.06824 | 12837 ft | 329 kts | 266° |
| 2026-04-29 16:41 | 50.31443 | 5.03277 | 12430 ft | 326 kts | 266° |
| 2026-04-29 16:41 | 50.31298 | 4.99740 | 12023 ft | 323 kts | 266° |
| 2026-04-29 16:41 | 50.31155 | 4.96257 | 11636 ft | 320 kts | 266° |
| 2026-04-29 16:41 | 50.31016 | 4.92833 | 11241 ft | 317 kts | 266° |
| 2026-04-29 16:42 | 50.30876 | 4.89394 | 10905 ft | 307 kts | 266° |
| 2026-04-29 16:42 | 50.30744 | 4.86156 | 10594 ft | 297 kts | 266° |
| 2026-04-29 16:42 | 50.30616 | 4.82982 | 10269 ft | 289 kts | 266° |
| 2026-04-29 16:42 | 50.30491 | 4.79879 | 9921 ft | 283 kts | 266° |
| 2026-04-29 16:43 | 50.30369 | 4.76815 | 9547 ft | 281 kts | 266° |
| 2026-04-29 16:43 | 50.30246 | 4.73771 | 9189 ft | 280 kts | 266° |
| 2026-04-29 16:43 | 50.30126 | 4.70737 | 8826 ft | 278 kts | 266° |
| 2026-04-29 16:43 | 50.30009 | 4.67723 | 8461 ft | 277 kts | 266° |
| 2026-04-29 16:44 | 50.29893 | 4.64728 | 8108 ft | 276 kts | 266° |
| 2026-04-29 16:44 | 50.29779 | 4.61730 | 7759 ft | 275 kts | 266° |
| 2026-04-29 16:44 | 50.29668 | 4.58754 | 7405 ft | 275 kts | 266° |
| 2026-04-29 16:44 | 50.29557 | 4.55763 | 7063 ft | 274 kts | 266° |
| 2026-04-29 16:45 | 50.29446 | 4.52801 | 6741 ft | 272 kts | 266° |
| 2026-04-29 16:45 | 50.29336 | 4.49887 | 6417 ft | 271 kts | 266° |
| 2026-04-29 16:45 | 50.29226 | 4.46931 | 6101 ft | 270 kts | 266° |
| 2026-04-29 16:45 | 50.29115 | 4.44003 | 5786 ft | 269 kts | 266° |
| 2026-04-29 16:46 | 50.28997 | 4.41095 | 5493 ft | 266 kts | 266° |
| 2026-04-29 16:46 | 50.28876 | 4.38216 | 5208 ft | 264 kts | 266° |
| 2026-04-29 16:46 | 50.29006 | 4.35388 | 4902 ft | 261 kts | 291° |
| 2026-04-29 16:46 | 50.29962 | 4.33039 | 4595 ft | 255 kts | 317° |
| 2026-04-29 16:47 | 50.31313 | 4.31274 | 4287 ft | 249 kts | 325° |
| 2026-04-29 16:47 | 50.32648 | 4.29612 | 4034 ft | 245 kts | 324° |
| 2026-04-29 16:47 | 50.33967 | 4.27939 | 3736 ft | 242 kts | 324° |
| 2026-04-29 16:47 | 50.35245 | 4.26298 | 3478 ft | 239 kts | 324° |
| 2026-04-29 16:48 | 50.36525 | 4.24662 | 3256 ft | 234 kts | 327° |
| 2026-04-29 16:48 | 50.37984 | 4.23783 | 3007 ft | 222 kts | 360° |
| 2026-04-29 16:48 | 50.39428 | 4.24276 | 2810 ft | 211 kts | 33° |
| 2026-04-29 16:48 | 50.40416 | 4.25909 | 2679 ft | 205 kts | 60° |
| 2026-04-29 16:49 | 50.41002 | 4.27882 | 2535 ft | 193 kts | 65° |
| 2026-04-29 16:49 | 50.41517 | 4.29707 | 2554 ft | 175 kts | 65° |
| 2026-04-29 16:49 | 50.41995 | 4.31381 | 2472 ft | 160 kts | 65° |
| 2026-04-29 16:49 | 50.42384 | 4.32914 | 2322 ft | 143 kts | 68° |
| 2026-04-29 16:50 | 50.42781 | 4.34316 | 1991 ft | 140 kts | 64° |
| 2026-04-29 16:50 | 50.43197 | 4.35719 | 1775 ft | 143 kts | 63° |
| 2026-04-29 16:50 | 50.43607 | 4.37121 | 1666 ft | 141 kts | 64° |
| 2026-04-29 16:50 | 50.44019 | 4.38536 | 1411 ft | 143 kts | 64° |
| 2026-04-29 16:51 | 50.44444 | 4.39955 | 1207 ft | 142 kts | 65° |
| 2026-04-29 16:51 | 50.44839 | 4.41329 | 1018 ft | 135 kts | 65° |
| 2026-04-29 16:51 | 50.45227 | 4.42670 | 824 ft | 138 kts | 65° |
| 2026-04-29 16:51 | 50.45626 | 4.44042 | 677 ft | 137 kts | 65° |
| 2026-04-29 16:52 | 50.45995 | 4.45318 | 620 ft | 114 kts | 66° |
| 2026-04-29 16:52 | 50.46264 | 4.46243 | 615 ft | 71 kts | 65° |
| 2026-04-29 16:52 | 50.46412 | 4.46751 | 625 ft | 27 kts | 65° |